KCHD/CHD METAR and TAF weather

Enter ICAO airport designator
Station Type Date Time Source
KCHD METAR 2024/06/15 22:47 UTC NOAA

KCHD 152247Z 21006G15KT 10SM CLR 43/M02 A2966


Station Type Date Time Source
KCHD Decoded METAR 2024/06/15 22:47 UTC NOAA

Chandler, Chandler Municipal Airport, AZ, United States (KCHD) 33-16-09N 111-48-40W
Jun 15, 2024 - 06:47 PM EDT / 2024.06.15 2247 UTC
Wind: from the SSW (210 degrees) at 7 MPH (6 KT) gusting to 17 MPH (15 KT):0
Visibility: 10 mile(s):0
Sky conditions: clear
Temperature: 109 F (43 C)
Dew Point: 28 F (-2 C)
Relative Humidity: 6%
Pressure (altimeter): 29.66 in. Hg (1004 hPa)
ob: KCHD 152247Z 21006G15KT 10SM CLR 43/M02 A2966
cycle: 23

Station Type Date Time Source
KCHD TAF UTC NOAA

Error!

Example: see airport list